Kenney, Texas
Current Conditions -  °F | °C
As of 6:55 AM on Saturday 20 Dec 2014 (Local Time) from K11R Reporting Station
Overcast Overcast  
Wind Chill: 51°   Ceiling: 800
Heat Index: 51°   Visibility: 7mi
Dew Point: 49°   Wind: 7mph
Humidity: 94%   Direction: 360°N
Pressure: 30.2"   Gusts: NA
Location:  30.05°N, 96.33°W
Report Text: K11R 201255Z AUTO 36006KT 7SM OVC008 10/09 A3020 RMK AO2 T01030094
Loading
Personal Weather Stations






























Interactive Weather Map New forecast layout! Learn more

10-Day Weather Forecast

Advertisements
Track Severe Weather on mobile